Time;durP1;ratioP1;P1;durP2;ratioP2;P2;SDS_P1;SDS_P2;PMS_P1;PMS_P2;Temp;Humidity;BMP_temperature;BMP_pressure;BME280_temperature;BME280_humidity;BME280_pressure;Samples;Min_cycle;Max_cycle;Signal;HPM_P1;HPM_P2
2022/05/08 00:00:24;;;;;;;;;;;7.30;84.50;;;;;;5037079;28;19924;-65
2022/05/08 00:02:52;;;;;;;;;;;7.20;84.70;;;;;;5037055;28;19916;-65
2022/05/08 00:05:18;;;;;;;;;;;7.10;85.30;;;;;;5035964;28;20426;-65
2022/05/08 00:07:44;;;;;;;;;;;7.10;85.70;;;;;;5030499;28;19921;-65
2022/05/08 00:10:09;;;;;;;;;;;7.00;85.60;;;;;;5038173;28;19963;-64
2022/05/08 00:12:36;;;;;;;;;;;7.00;85.80;;;;;;5028426;28;19917;-64
2022/05/08 00:15:02;;;;;;;;;;;7.00;86.60;;;;;;5032272;28;19939;-64
2022/05/08 00:17:29;;;;;;;;;;;6.90;86.30;;;;;;5029151;28;19943;-64
2022/05/08 00:19:55;;;;;;;;;;;6.90;86.10;;;;;;5041955;28;20015;-64
2022/05/08 00:22:21;;;;;;;;;;;6.80;86.50;;;;;;5042255;28;19928;-64
2022/05/08 00:24:46;;;;;;;;;;;6.80;88.20;;;;;;5047079;28;19921;-64
2022/05/08 00:27:12;;;;;;;;;;;6.80;88.00;;;;;;5052797;28;19925;-64
2022/05/08 00:29:37;;;;;;;;;;;6.70;88.20;;;;;;5050796;28;19917;-64
2022/05/08 00:32:03;;;;;;;;;;;6.70;89.40;;;;;;5049204;28;19924;-64
2022/05/08 00:34:28;;;;;;;;;;;6.70;90.10;;;;;;5043609;28;19929;-64
2022/05/08 00:36:54;;;;;;;;;;;6.70;88.80;;;;;;5032254;28;19921;-64
2022/05/08 00:39:20;;;;;;;;;;;6.60;88.20;;;;;;5034156;28;19917;-64
2022/05/08 00:41:46;;;;;;;;;;;6.50;87.70;;;;;;5041352;28;19968;-64
2022/05/08 00:44:11;;;;;;;;;;;6.50;88.00;;;;;;5034175;28;19963;-64
2022/05/08 00:46:37;;;;;;;;;;;6.50;88.00;;;;;;5047781;28;19920;-64
2022/05/08 00:49:02;;;;;;;;;;;6.40;88.20;;;;;;5045579;28;19921;-64
2022/05/08 00:51:28;;;;;;;;;;;6.40;87.90;;;;;;5052419;28;19917;-64
2022/05/08 00:53:54;;;;;;;;;;;6.30;87.70;;;;;;5037818;28;20004;-65
2022/05/08 00:56:20;;;;;;;;;;;6.30;88.00;;;;;;5040817;28;19925;-64
2022/05/08 00:58:48;;;;;;;;;;;6.20;88.00;;;;;;5036890;28;19921;-64
2022/05/08 01:01:13;;;;;;;;;;;6.20;88.20;;;;;;5045918;28;19947;-64
2022/05/08 01:03:39;;;;;;;;;;;6.20;90.20;;;;;;5034873;28;19933;-65
2022/05/08 01:06:06;;;;;;;;;;;6.20;90.50;;;;;;5046197;28;19920;-64
2022/05/08 01:08:32;;;;;;;;;;;6.10;90.10;;;;;;5034615;28;19917;-64
2022/05/08 01:10:58;;;;;;;;;;;6.10;89.90;;;;;;5039872;28;19924;-65
2022/05/08 01:13:24;;;;;;;;;;;6.10;90.00;;;;;;5047596;28;19948;-64
2022/05/08 01:15:49;;;;;;;;;;;6.10;90.30;;;;;;5039821;28;19955;-63
2022/05/08 01:18:15;;;;;;;;;;;6.10;90.20;;;;;;5038910;28;19924;-63
2022/05/08 01:20:42;;;;;;;;;;;6.10;90.00;;;;;;5034449;28;20376;-64
2022/05/08 01:23:07;;;;;;;;;;;6.00;90.10;;;;;;5039594;28;20381;-64
2022/05/08 01:25:34;;;;;;;;;;;6.00;89.80;;;;;;5046832;28;19917;-64
2022/05/08 01:28:01;;;;;;;;;;;5.90;89.10;;;;;;5044162;28;19939;-64
2022/05/08 01:30:26;;;;;;;;;;;5.90;89.80;;;;;;5039977;28;20262;-64
2022/05/08 01:32:52;;;;;;;;;;;5.90;90.30;;;;;;5040280;28;19927;-64
2022/05/08 01:35:19;;;;;;;;;;;5.80;90.10;;;;;;5040841;28;20387;-64
2022/05/08 01:37:44;;;;;;;;;;;5.80;89.90;;;;;;5038849;28;19924;-64
2022/05/08 01:40:10;;;;;;;;;;;5.80;90.10;;;;;;5034327;28;19917;-64
2022/05/08 01:42:35;;;;;;;;;;;5.70;90.00;;;;;;5037485;28;19920;-63
2022/05/08 01:45:01;;;;;;;;;;;5.70;90.10;;;;;;5040015;28;20011;-64
2022/05/08 01:50:11;;;;;;;;;;;5.60;90.20;;;;;;5043105;28;19917;-64
2022/05/08 01:52:37;;;;;;;;;;;5.70;91.30;;;;;;5040938;28;19948;-64
2022/05/08 01:55:02;;;;;;;;;;;5.80;91.90;;;;;;5037166;28;19959;-64
2022/05/08 01:57:28;;;;;;;;;;;5.90;91.20;;;;;;5042123;28;22386;-64
2022/05/08 01:59:53;;;;;;;;;;;5.80;90.80;;;;;;5038470;28;19927;-65
2022/05/08 02:02:19;;;;;;;;;;;5.80;91.40;;;;;;5045053;28;19925;-63
2022/05/08 02:04:45;;;;;;;;;;;5.80;91.20;;;;;;5042755;28;19920;-63
2022/05/08 02:07:11;;;;;;;;;;;5.70;91.20;;;;;;5046751;28;19970;-63
2022/05/08 02:09:36;;;;;;;;;;;5.60;91.10;;;;;;5048025;28;20319;-65
2022/05/08 02:12:02;;;;;;;;;;;5.60;91.30;;;;;;5047591;28;19917;-63
2022/05/08 02:14:27;;;;;;;;;;;5.70;92.30;;;;;;5034233;28;19978;-63
2022/05/08 02:16:53;;;;;;;;;;;5.70;91.60;;;;;;5046597;28;19917;-64
2022/05/08 02:19:18;;;;;;;;;;;5.80;91.50;;;;;;5029372;28;19931;-65
2022/05/08 02:21:44;;;;;;;;;;;5.70;91.40;;;;;;5041283;28;20332;-63
2022/05/08 02:24:09;;;;;;;;;;;5.70;91.20;;;;;;5041007;28;20377;-63
2022/05/08 02:26:35;;;;;;;;;;;5.70;91.60;;;;;;5044114;28;20548;-64
2022/05/08 02:29:00;;;;;;;;;;;5.60;91.20;;;;;;5041863;28;19917;-64
2022/05/08 02:31:26;;;;;;;;;;;5.50;91.30;;;;;;5039303;28;19925;-64
2022/05/08 02:33:51;;;;;;;;;;;5.40;91.60;;;;;;5044113;28;20443;-64
2022/05/08 02:36:18;;;;;;;;;;;5.40;91.70;;;;;;5036485;28;19960;-64
2022/05/08 02:38:44;;;;;;;;;;;5.50;91.50;;;;;;5039844;28;19923;-63
2022/05/08 02:41:09;;;;;;;;;;;5.40;91.20;;;;;;5046244;28;20364;-64
2022/05/08 02:43:35;;;;;;;;;;;5.40;91.40;;;;;;5042318;28;20018;-64
2022/05/08 02:46:02;;;;;;;;;;;5.30;91.30;;;;;;5038513;28;19928;-64
2022/05/08 02:48:27;;;;;;;;;;;5.20;91.40;;;;;;5043255;28;19916;-64
2022/05/08 02:50:53;;;;;;;;;;;5.20;91.60;;;;;;5044009;28;21153;-63
2022/05/08 02:53:20;;;;;;;;;;;5.20;91.50;;;;;;5037626;28;19931;-64
2022/05/08 02:58:32;;;;;;;;;;;5.10;91.80;;;;;;5041272;28;19920;-65
2022/05/08 03:01:01;;;;;;;;;;;5.10;91.30;;;;;;5040748;28;19920;-64
2022/05/08 03:03:27;;;;;;;;;;;5.00;91.40;;;;;;5033308;28;19917;-65
2022/05/08 03:05:52;;;;;;;;;;;5.00;91.50;;;;;;5042178;28;19962;-64
2022/05/08 03:08:18;;;;;;;;;;;4.90;91.50;;;;;;5033488;28;19921;-64
2022/05/08 03:13:29;;;;;;;;;;;4.90;91.50;;;;;;5037133;28;20000;-64
2022/05/08 03:15:55;;;;;;;;;;;4.90;91.60;;;;;;5038796;28;20287;-64
2022/05/08 03:18:20;;;;;;;;;;;4.80;91.80;;;;;;5042427;28;19920;-64
2022/05/08 03:20:46;;;;;;;;;;;4.80;91.80;;;;;;5034556;28;19925;-64
2022/05/08 03:23:12;;;;;;;;;;;4.80;91.90;;;;;;5036650;28;19917;-64
2022/05/08 03:25:37;;;;;;;;;;;4.80;91.80;;;;;;5040161;28;20311;-64
2022/05/08 03:28:03;;;;;;;;;;;4.70;92.10;;;;;;5044229;28;19963;-63
2022/05/08 03:30:28;;;;;;;;;;;4.70;92.50;;;;;;5044170;28;19963;-63
2022/05/08 03:32:55;;;;;;;;;;;4.70;92.20;;;;;;5047827;28;19917;-64
2022/05/08 03:35:21;;;;;;;;;;;4.70;91.80;;;;;;5033206;28;20019;-64
2022/05/08 03:37:47;;;;;;;;;;;4.70;92.30;;;;;;5047735;28;20337;-64
2022/05/08 03:40:12;;;;;;;;;;;4.60;92.00;;;;;;5043359;28;19963;-63
2022/05/08 03:42:38;;;;;;;;;;;4.50;92.00;;;;;;5042434;28;19917;-64
2022/05/08 03:45:03;;;;;;;;;;;4.60;91.80;;;;;;5042964;28;19916;-64
2022/05/08 03:47:29;;;;;;;;;;;4.60;91.70;;;;;;5046896;28;19920;-63
2022/05/08 03:49:54;;;;;;;;;;;4.60;91.70;;;;;;5041812;28;19920;-63
2022/05/08 03:52:20;;;;;;;;;;;4.60;91.70;;;;;;5045835;28;19999;-63
2022/05/08 03:54:45;;;;;;;;;;;4.60;91.50;;;;;;5044345;28;19928;-64
2022/05/08 03:57:11;;;;;;;;;;;4.60;91.50;;;;;;5035971;28;19963;-64
2022/05/08 03:59:36;;;;;;;;;;;4.60;91.30;;;;;;5048353;28;19932;-63
2022/05/08 04:02:02;;;;;;;;;;;4.60;91.40;;;;;;5035784;28;19933;-64
2022/05/08 04:04:27;;;;;;;;;;;4.60;91.50;;;;;;5041848;28;19924;-64
2022/05/08 04:06:52;;;;;;;;;;;4.60;91.50;;;;;;5050897;28;19945;-64
2022/05/08 04:09:18;;;;;;;;;;;4.60;91.30;;;;;;5047016;28;19921;-64
2022/05/08 04:11:43;;;;;;;;;;;4.70;91.30;;;;;;5046585;28;19999;-64
2022/05/08 04:14:09;;;;;;;;;;;4.60;91.40;;;;;;5047631;28;19925;-64
2022/05/08 04:16:35;;;;;;;;;;;4.60;91.90;;;;;;5028032;28;19967;-64
2022/05/08 04:19:00;;;;;;;;;;;4.50;92.30;;;;;;5049128;28;20417;-64
2022/05/08 04:21:26;;;;;;;;;;;4.60;92.00;;;;;;5035749;28;20254;-64
2022/05/08 04:26:35;;;;;;;;;;;4.70;91.80;;;;;;5049102;28;19921;-64
2022/05/08 04:29:01;;;;;;;;;;;4.80;92.20;;;;;;5040161;28;19963;-64
2022/05/08 04:31:27;;;;;;;;;;;4.80;92.40;;;;;;5047383;28;19923;-63
2022/05/08 04:33:52;;;;;;;;;;;4.80;92.20;;;;;;5037828;28;19924;-63
2022/05/08 04:36:18;;;;;;;;;;;4.80;91.70;;;;;;5041107;28;20007;-63
2022/05/08 04:38:43;;;;;;;;;;;4.80;92.00;;;;;;5036461;28;19917;-64
2022/05/08 04:41:09;;;;;;;;;;;4.90;92.40;;;;;;5039891;28;20345;-63
2022/05/08 04:43:35;;;;;;;;;;;4.90;92.20;;;;;;5040820;28;20003;-64
2022/05/08 04:46:00;;;;;;;;;;;5.00;92.00;;;;;;5037981;28;20011;-64
2022/05/08 04:48:26;;;;;;;;;;;5.00;92.00;;;;;;5032924;28;19920;-64
2022/05/08 04:50:51;;;;;;;;;;;5.10;91.80;;;;;;5046644;28;19978;-64
2022/05/08 04:53:16;;;;;;;;;;;5.10;91.60;;;;;;5049129;28;19920;-64
2022/05/08 04:55:42;;;;;;;;;;;5.10;91.60;;;;;;5036018;28;20345;-63
2022/05/08 04:58:08;;;;;;;;;;;5.10;92.10;;;;;;5039469;28;19924;-64
2022/05/08 05:00:34;;;;;;;;;;;5.20;92.20;;;;;;5044895;28;19931;-64
2022/05/08 05:03:00;;;;;;;;;;;5.20;92.90;;;;;;5037596;28;20327;-64
2022/05/08 05:05:26;;;;;;;;;;;5.30;92.40;;;;;;5035643;28;19931;-65
2022/05/08 05:07:51;;;;;;;;;;;5.40;92.00;;;;;;5041519;28;20364;-64
2022/05/08 05:10:17;;;;;;;;;;;5.40;92.00;;;;;;5037981;28;19916;-64
2022/05/08 05:12:42;;;;;;;;;;;5.60;91.90;;;;;;5039545;28;19916;-65
2022/05/08 05:15:08;;;;;;;;;;;5.70;91.80;;;;;;5033949;28;19921;-64
2022/05/08 05:17:34;;;;;;;;;;;5.70;91.60;;;;;;5039664;28;19928;-65
2022/05/08 05:19:59;;;;;;;;;;;5.80;91.30;;;;;;5036349;28;19987;-65
2022/05/08 05:22:25;;;;;;;;;;;6.00;92.20;;;;;;5062183;28;19936;-64
2022/05/08 05:24:51;;;;;;;;;;;6.10;91.90;;;;;;5034984;28;19964;-64
2022/05/08 05:27:17;;;;;;;;;;;6.20;91.80;;;;;;5041755;28;19929;-64
2022/05/08 05:29:42;;;;;;;;;;;6.40;91.90;;;;;;5042803;28;19920;-64
2022/05/08 05:32:08;;;;;;;;;;;6.40;91.70;;;;;;5032263;28;19924;-64
2022/05/08 05:34:33;;;;;;;;;;;6.60;91.80;;;;;;5039938;28;19932;-65
2022/05/08 05:36:59;;;;;;;;;;;6.70;91.70;;;;;;5037890;28;19962;-64
2022/05/08 05:39:25;;;;;;;;;;;6.90;91.60;;;;;;5045854;28;19966;-64
2022/05/08 05:41:50;;;;;;;;;;;7.10;91.40;;;;;;5037922;28;19925;-64
2022/05/08 05:44:16;;;;;;;;;;;7.30;91.20;;;;;;5044665;28;19927;-64
2022/05/08 05:49:27;;;;;;;;;;;7.60;90.50;;;;;;5049024;28;19966;-64
2022/05/08 05:51:53;;;;;;;;;;;7.90;90.00;;;;;;5046040;28;19924;-65
2022/05/08 05:54:21;;;;;;;;;;;8.10;88.80;;;;;;5040955;28;19925;-65
2022/05/08 05:56:47;;;;;;;;;;;8.30;87.70;;;;;;5030670;28;19928;-65
2022/05/08 05:59:13;;;;;;;;;;;8.50;86.50;;;;;;5042371;28;19916;-65
2022/05/08 06:01:38;;;;;;;;;;;8.60;86.10;;;;;;5038368;28;20388;-64
2022/05/08 06:04:04;;;;;;;;;;;8.70;85.80;;;;;;5030641;28;19924;-64
2022/05/08 06:06:29;;;;;;;;;;;8.80;85.20;;;;;;5049158;28;20029;-65
2022/05/08 06:08:55;;;;;;;;;;;9.00;84.80;;;;;;5045236;28;19952;-64
2022/05/08 06:11:20;;;;;;;;;;;9.10;84.20;;;;;;5047249;28;19974;-65
2022/05/08 06:13:46;;;;;;;;;;;9.30;84.00;;;;;;5036607;28;19983;-65
2022/05/08 06:16:11;;;;;;;;;;;9.40;83.20;;;;;;5038619;28;19920;-65
2022/05/08 06:18:37;;;;;;;;;;;9.50;83.10;;;;;;5037722;28;20426;-65
2022/05/08 06:21:03;;;;;;;;;;;9.50;82.80;;;;;;5042799;28;20012;-65
2022/05/08 06:23:28;;;;;;;;;;;9.70;82.30;;;;;;5033103;28;20015;-65
2022/05/08 06:25:54;;;;;;;;;;;9.90;81.70;;;;;;5044354;28;20456;-65
2022/05/08 06:28:19;;;;;;;;;;;10.00;80.80;;;;;;5040718;28;19920;-66
2022/05/08 06:30:48;;;;;;;;;;;10.20;80.40;;;;;;5037626;28;20352;-65
2022/05/08 06:33:14;;;;;;;;;;;10.30;79.10;;;;;;5044720;28;19925;-65
2022/05/08 06:35:39;;;;;;;;;;;10.50;78.20;;;;;;5042677;28;20323;-64
2022/05/08 06:38:05;;;;;;;;;;;10.60;77.30;;;;;;5042530;28;19970;-65
2022/05/08 06:40:31;;;;;;;;;;;10.70;76.40;;;;;;5041032;28;19962;-65
2022/05/08 06:42:56;;;;;;;;;;;10.90;75.80;;;;;;5043907;28;19929;-65
2022/05/08 06:45:25;;;;;;;;;;;11.00;75.60;;;;;;5037758;28;19917;-65
2022/05/08 06:47:50;;;;;;;;;;;11.10;74.10;;;;;;5033995;28;20375;-65
2022/05/08 06:50:18;;;;;;;;;;;11.10;73.90;;;;;;5038982;28;19932;-65
2022/05/08 06:52:43;;;;;;;;;;;11.20;73.10;;;;;;5049438;28;19923;-66
2022/05/08 06:55:09;;;;;;;;;;;11.30;73.10;;;;;;5034398;28;19921;-66
2022/05/08 06:57:34;;;;;;;;;;;11.50;73.00;;;;;;5036084;28;19924;-66
2022/05/08 07:02:45;;;;;;;;;;;11.70;71.40;;;;;;5043947;28;19916;-65
2022/05/08 07:05:11;;;;;;;;;;;11.90;71.70;;;;;;5038852;28;19917;-66
2022/05/08 07:07:36;;;;;;;;;;;12.00;71.40;;;;;;5038922;28;19921;-65
2022/05/08 07:10:02;;;;;;;;;;;12.10;70.60;;;;;;5044062;28;19917;-66
2022/05/08 07:12:28;;;;;;;;;;;12.00;70.40;;;;;;5049757;28;19962;-65
2022/05/08 07:14:54;;;;;;;;;;;12.10;69.80;;;;;;5043067;28;19920;-65
2022/05/08 07:17:21;;;;;;;;;;;12.20;69.60;;;;;;5046784;28;19925;-66
2022/05/08 07:19:47;;;;;;;;;;;12.30;66.70;;;;;;5036965;28;20361;-65
2022/05/08 07:22:15;;;;;;;;;;;12.40;68.70;;;;;;5034306;28;19924;-66
2022/05/08 07:24:40;;;;;;;;;;;12.50;68.40;;;;;;5037188;28;19928;-66
2022/05/08 07:27:05;;;;;;;;;;;12.70;67.80;;;;;;5037115;28;20066;-65
2022/05/08 07:29:31;;;;;;;;;;;12.80;66.00;;;;;;5036336;28;19925;-65
2022/05/08 07:31:58;;;;;;;;;;;12.80;63.60;;;;;;5043631;28;19992;-65
2022/05/08 07:37:08;;;;;;;;;;;13.50;64.70;;;;;;5036683;28;19917;-65
2022/05/08 07:39:33;;;;;;;;;;;14.20;63.30;;;;;;5033731;28;20256;-66
2022/05/08 07:41:59;;;;;;;;;;;14.70;61.30;;;;;;5030003;28;19921;-66
2022/05/08 07:44:24;;;;;;;;;;;14.90;57.70;;;;;;5053229;28;19917;-66
2022/05/08 07:46:51;;;;;;;;;;;14.90;57.30;;;;;;5046133;28;19917;-66
2022/05/08 07:49:16;;;;;;;;;;;15.00;58.80;;;;;;5038943;28;19927;-65
2022/05/08 07:51:42;;;;;;;;;;;14.70;59.10;;;;;;5030455;28;19917;-65
2022/05/08 07:54:07;;;;;;;;;;;14.50;57.40;;;;;;5035031;28;19925;-66
2022/05/08 07:56:34;;;;;;;;;;;14.40;59.80;;;;;;5036071;28;19921;-65
2022/05/08 07:59:00;;;;;;;;;;;14.50;59.50;;;;;;5030564;28;19925;-66
2022/05/08 08:01:25;;;;;;;;;;;14.20;59.30;;;;;;5032328;28;19920;-65
2022/05/08 08:03:51;;;;;;;;;;;14.00;60.10;;;;;;5040637;28;19928;-65
2022/05/08 08:06:17;;;;;;;;;;;13.80;60.50;;;;;;5032225;28;19960;-66
2022/05/08 08:08:42;;;;;;;;;;;13.60;60.40;;;;;;5037982;28;19924;-66
2022/05/08 08:11:08;;;;;;;;;;;13.60;60.50;;;;;;5052095;28;19917;-66
2022/05/08 08:13:34;;;;;;;;;;;14.30;60.50;;;;;;5036063;28;19924;-65
2022/05/08 08:16:01;;;;;;;;;;;14.80;57.40;;;;;;5038894;28;20418;-65
2022/05/08 08:18:26;;;;;;;;;;;15.60;55.80;;;;;;5037613;28;20015;-67
2022/05/08 08:20:52;;;;;;;;;;;16.00;55.80;;;;;;5040146;28;20012;-63
2022/05/08 08:23:18;;;;;;;;;;;16.30;51.40;;;;;;5050339;28;19929;-64
2022/05/08 08:25:44;;;;;;;;;;;16.50;50.70;;;;;;5036243;28;19924;-66
2022/05/08 08:28:10;;;;;;;;;;;16.90;51.10;;;;;;5031112;28;20348;-66
2022/05/08 08:30:36;;;;;;;;;;;17.00;50.10;;;;;;5034869;28;19960;-66
2022/05/08 08:33:02;;;;;;;;;;;17.60;53.10;;;;;;5042069;28;19920;-65
2022/05/08 08:35:27;;;;;;;;;;;18.20;47.80;;;;;;5036103;28;19970;-67
2022/05/08 08:37:54;;;;;;;;;;;18.60;50.10;;;;;;5036605;28;19921;-67
2022/05/08 08:40:20;;;;;;;;;;;18.50;48.40;;;;;;5048878;28;19923;-67
2022/05/08 08:42:46;;;;;;;;;;;18.50;48.70;;;;;;5047871;28;19921;-67
2022/05/08 08:48:01;;;;;;;;;;;19.50;48.10;;;;;;5044626;28;19925;-66
2022/05/08 08:50:27;;;;;;;;;;;19.80;44.90;;;;;;5043929;28;19933;-67
2022/05/08 08:52:57;;;;;;;;;;;20.50;44.80;;;;;;5044114;28;19925;-68
2022/05/08 08:55:22;;;;;;;;;;;20.70;44.20;;;;;;5043150;28;19931;-68
2022/05/08 08:57:48;;;;;;;;;;;21.30;41.20;;;;;;5041625;28;19951;-67
2022/05/08 09:00:14;;;;;;;;;;;21.60;42.50;;;;;;5037177;28;19963;-67
2022/05/08 09:02:39;;;;;;;;;;;21.60;40.30;;;;;;5037036;28;19920;-67
2022/05/08 09:05:07;;;;;;;;;;;22.30;40.30;;;;;;5045230;28;20368;-67
2022/05/08 09:07:37;;;;;;;;;;;22.50;39.60;;;;;;5048861;28;19917;-68
2022/05/08 09:10:22;;;;;;;;;;;22.80;38.10;;;;;;5036558;28;20353;-68
2022/05/08 09:12:53;;;;;;;;;;;23.20;37.40;;;;;;5033479;28;19991;-68
2022/05/08 09:15:24;;;;;;;;;;;23.40;39.40;;;;;;5045849;28;19925;-68
2022/05/08 09:17:51;;;;;;;;;;;23.30;37.30;;;;;;5046748;28;20395;-68
2022/05/08 09:20:30;;;;;;;;;;;23.10;37.70;;;;;;5042084;28;19924;-67
2022/05/08 09:23:03;;;;;;;;;;;23.20;38.50;;;;;;5039081;28;19917;-67
2022/05/08 09:25:42;;;;;;;;;;;23.90;37.90;;;;;;5046943;28;19916;-68
2022/05/08 09:28:07;;;;;;;;;;;24.30;35.30;;;;;;5049744;28;19925;-66
2022/05/08 09:30:33;;;;;;;;;;;24.70;31.00;;;;;;5046923;28;19923;-67
2022/05/08 09:32:58;;;;;;;;;;;24.70;35.10;;;;;;5046084;28;19917;-67
2022/05/08 09:35:24;;;;;;;;;;;24.80;32.00;;;;;;5044376;28;20810;-67
2022/05/08 09:37:53;;;;;;;;;;;25.10;35.60;;;;;;5033785;28;20364;-67
2022/05/08 09:40:19;;;;;;;;;;;25.00;33.50;;;;;;5061950;28;20292;-68
2022/05/08 09:42:46;;;;;;;;;;;24.80;32.80;;;;;;5036781;28;19982;-68
2022/05/08 09:45:12;;;;;;;;;;;24.40;33.60;;;;;;5034720;28;19963;-68
2022/05/08 09:47:44;;;;;;;;;;;24.00;31.40;;;;;;5040177;28;19959;-68
2022/05/08 09:50:10;;;;;;;;;;;23.90;32.30;;;;;;5039867;28;19920;-67
2022/05/08 09:52:38;;;;;;;;;;;23.40;34.20;;;;;;5031610;28;20031;-68
2022/05/08 09:55:04;;;;;;;;;;;23.00;34.30;;;;;;5034542;28;19956;-67
2022/05/08 09:57:29;;;;;;;;;;;23.00;34.10;;;;;;5043533;28;19970;-67
2022/05/08 09:59:55;;;;;;;;;;;23.40;34.80;;;;;;5046399;28;19920;-67
2022/05/08 10:02:21;;;;;;;;;;;24.10;33.10;;;;;;5044390;28;19940;-67
2022/05/08 10:04:47;;;;;;;;;;;24.90;32.70;;;;;;5043855;28;19975;-67
2022/05/08 10:07:13;;;;;;;;;;;25.60;30.20;;;;;;5064255;28;20368;-67
2022/05/08 10:15:18;;;;;;;;;;;24.90;31.70;;;;;;5043934;28;20003;-67
2022/05/08 10:17:43;;;;;;;;;;;24.20;34.00;;;;;;5036799;28;19921;-67
2022/05/08 10:20:09;;;;;;;;;;;23.40;31.90;;;;;;5041330;28;19925;-67
2022/05/08 10:22:48;;;;;;;;;;;23.10;33.50;;;;;;5035159;28;19931;-65
2022/05/08 10:25:15;;;;;;;;;;;23.50;35.20;;;;;;5037598;28;19924;-67
2022/05/08 10:27:41;;;;;;;;;;;25.00;33.10;;;;;;5041693;28;20430;-67
2022/05/08 10:30:06;;;;;;;;;;;25.60;32.00;;;;;;5048038;28;19928;-67
2022/05/08 10:32:32;;;;;;;;;;;26.10;30.80;;;;;;5048492;28;19917;-66
2022/05/08 10:35:14;;;;;;;;;;;26.60;30.90;;;;;;5037762;28;19933;-67
2022/05/08 10:37:46;;;;;;;;;;;26.30;30.00;;;;;;5043019;28;19917;-66
2022/05/08 10:40:23;;;;;;;;;;;25.70;29.70;;;;;;5037388;28;19970;-67
2022/05/08 10:42:49;;;;;;;;;;;24.70;30.60;;;;;;5039691;28;19928;-66
2022/05/08 10:45:27;;;;;;;;;;;23.80;31.30;;;;;;5035074;28;19931;-67
2022/05/08 10:47:52;;;;;;;;;;;23.00;32.10;;;;;;5041984;28;20443;-67
2022/05/08 10:50:17;;;;;;;;;;;22.00;33.80;;;;;;5044651;28;19927;-67
2022/05/08 10:52:46;;;;;;;;;;;21.50;34.60;;;;;;5035850;28;20284;-67
2022/05/08 10:55:15;;;;;;;;;;;21.20;35.50;;;;;;5050407;28;20003;-66
2022/05/08 10:57:41;;;;;;;;;;;20.40;35.30;;;;;;5048222;28;19999;-65
2022/05/08 11:00:08;;;;;;;;;;;19.70;35.00;;;;;;5033799;28;19959;-67
2022/05/08 11:02:40;;;;;;;;;;;19.40;37.60;;;;;;5034123;28;19917;-67
2022/05/08 11:05:19;;;;;;;;;;;19.50;38.70;;;;;;5040028;28;19924;-67
2022/05/08 11:07:49;;;;;;;;;;;19.30;39.00;;;;;;5041133;28;19955;-66
2022/05/08 11:10:15;;;;;;;;;;;18.90;38.30;;;;;;5047090;28;19916;-67
2022/05/08 11:12:59;;;;;;;;;;;18.90;38.50;;;;;;5044901;28;19962;-65
2022/05/08 11:15:25;;;;;;;;;;;18.60;37.70;;;;;;5047827;28;19920;-66
2022/05/08 11:18:04;;;;;;;;;;;18.50;38.90;;;;;;5035974;28;20092;-66
2022/05/08 11:20:31;;;;;;;;;;;18.20;38.80;;;;;;5041603;28;20404;-66
2022/05/08 11:22:57;;;;;;;;;;;18.30;39.30;;;;;;5040555;28;19943;-66
2022/05/08 11:25:22;;;;;;;;;;;18.30;39.90;;;;;;5033303;28;20397;-66
2022/05/08 11:27:52;;;;;;;;;;;18.00;39.10;;;;;;5053778;28;19921;-66
2022/05/08 11:30:36;;;;;;;;;;;18.40;41.00;;;;;;5040036;28;20354;-66
2022/05/08 11:36:06;;;;;;;;;;;18.60;39.90;;;;;;5036879;28;20015;-66
2022/05/08 11:38:44;;;;;;;;;;;18.30;38.60;;;;;;5042425;28;19916;-67
2022/05/08 11:41:10;;;;;;;;;;;18.40;40.30;;;;;;5035755;28;19917;-67
2022/05/08 11:43:46;;;;;;;;;;;18.80;40.60;;;;;;5043508;28;19947;-67
2022/05/08 11:46:15;;;;;;;;;;;18.80;39.70;;;;;;5045755;28;19916;-66
2022/05/08 11:48:46;;;;;;;;;;;19.10;38.90;;;;;;5044639;28;19963;-66
2022/05/08 11:51:12;;;;;;;;;;;18.60;37.30;;;;;;5038527;28;19917;-67
2022/05/08 11:53:41;;;;;;;;;;;18.70;39.50;;;;;;5033802;28;19921;-66
2022/05/08 11:56:19;;;;;;;;;;;18.60;39.20;;;;;;5046584;28;19924;-67
2022/05/08 11:58:47;;;;;;;;;;;18.90;39.50;;;;;;5041472;28;20007;-66
2022/05/08 12:01:25;;;;;;;;;;;19.00;37.70;;;;;;5036572;28;19983;-67
2022/05/08 12:03:50;;;;;;;;;;;18.70;37.30;;;;;;5046984;28;19921;-67
2022/05/08 12:06:16;;;;;;;;;;;19.10;37.40;;;;;;5039660;28;19927;-67
2022/05/08 12:08:41;;;;;;;;;;;19.20;37.20;;;;;;5037298;28;20395;-66
2022/05/08 12:11:07;;;;;;;;;;;18.90;35.10;;;;;;5048044;28;19978;-66
2022/05/08 12:13:52;;;;;;;;;;;19.00;36.10;;;;;;5051948;28;19971;-66
2022/05/08 12:16:18;;;;;;;;;;;19.30;36.00;;;;;;5045862;28;19921;-67
2022/05/08 12:19:02;;;;;;;;;;;19.70;35.90;;;;;;5045870;28;19917;-64
2022/05/08 12:21:28;;;;;;;;;;;19.80;33.70;;;;;;5053072;28;19923;-66
2022/05/08 12:23:53;;;;;;;;;;;20.20;35.00;;;;;;5054664;28;20288;-66
2022/05/08 12:26:20;;;;;;;;;;;20.40;34.50;;;;;;5052184;28;19927;-67
2022/05/08 12:28:45;;;;;;;;;;;20.90;33.00;;;;;;5048836;28;19916;-67
2022/05/08 12:31:11;;;;;;;;;;;21.30;33.60;;;;;;5032625;28;20379;-67
2022/05/08 12:33:37;;;;;;;;;;;21.40;30.50;;;;;;5036018;28;19920;-66
2022/05/08 12:36:02;;;;;;;;;;;21.90;30.10;;;;;;5034311;28;20012;-66
2022/05/08 12:38:28;;;;;;;;;;;23.40;29.80;;;;;;5041130;28;19939;-68
2022/05/08 12:40:54;;;;;;;;;;;25.20;28.00;;;;;;5053512;28;20019;-67
2022/05/08 12:43:19;;;;;;;;;;;26.60;28.00;;;;;;5052215;28;19931;-67
2022/05/08 12:45:46;;;;;;;;;;;28.30;27.50;;;;;;5054484;28;20403;-67
2022/05/08 12:48:11;;;;;;;;;;;29.20;23.60;;;;;;5054071;28;19924;-66
2022/05/08 12:50:37;;;;;;;;;;;29.40;23.80;;;;;;5050200;28;19917;-67
2022/05/08 12:53:02;;;;;;;;;;;30.10;23.90;;;;;;5046979;28;19917;-66
2022/05/08 12:55:28;;;;;;;;;;;30.90;24.30;;;;;;5039900;28;20015;-67
2022/05/08 13:00:37;;;;;;;;;;;32.30;23.30;;;;;;5046685;28;19924;-68
2022/05/08 13:03:03;;;;;;;;;;;32.90;22.40;;;;;;5051673;28;19916;-67
2022/05/08 13:05:29;;;;;;;;;;;32.90;22.60;;;;;;5049998;28;19920;-68
2022/05/08 13:07:55;;;;;;;;;;;33.40;22.40;;;;;;5043569;28;19921;-67
2022/05/08 13:10:20;;;;;;;;;;;33.70;22.20;;;;;;5054355;28;20323;-67
2022/05/08 13:12:46;;;;;;;;;;;34.10;22.40;;;;;;5051354;28;19921;-67
2022/05/08 13:15:12;;;;;;;;;;;34.50;21.20;;;;;;5046421;28;20304;-67
2022/05/08 13:17:37;;;;;;;;;;;34.80;22.60;;;;;;5046347;28;19924;-68
2022/05/08 13:20:03;;;;;;;;;;;34.80;21.80;;;;;;5038524;28;19917;-68
2022/05/08 13:22:28;;;;;;;;;;;34.90;21.40;;;;;;5041777;28;19921;-69
2022/05/08 13:24:54;;;;;;;;;;;35.00;22.20;;;;;;5045885;28;20369;-69
2022/05/08 13:27:19;;;;;;;;;;;34.70;20.20;;;;;;5051042;28;20296;-69
2022/05/08 13:29:45;;;;;;;;;;;34.50;21.00;;;;;;5049456;28;19916;-68
2022/05/08 13:32:10;;;;;;;;;;;35.00;21.20;;;;;;5031871;28;19971;-68
2022/05/08 13:34:37;;;;;;;;;;;35.40;19.90;;;;;;5037365;28;19925;-68
2022/05/08 13:37:02;;;;;;;;;;;35.10;20.40;;;;;;5042974;28;19929;-68
2022/05/08 13:39:28;;;;;;;;;;;34.90;20.40;;;;;;5041179;28;20055;-68
2022/05/08 13:41:54;;;;;;;;;;;34.80;19.80;;;;;;5051031;28;19927;-67
2022/05/08 13:44:20;;;;;;;;;;;34.90;18.60;;;;;;5037954;28;19924;-67
2022/05/08 13:46:46;;;;;;;;;;;35.60;20.30;;;;;;5050747;28;20404;-68
2022/05/08 13:49:12;;;;;;;;;;;35.00;20.20;;;;;;5039572;28;20722;-68
2022/05/08 13:51:38;;;;;;;;;;;34.90;19.80;;;;;;5050424;28;19916;-67
2022/05/08 13:54:04;;;;;;;;;;;35.10;19.60;;;;;;5050577;28;19958;-68
2022/05/08 13:56:30;;;;;;;;;;;35.10;19.80;;;;;;5031008;28;20264;-67
2022/05/08 13:58:56;;;;;;;;;;;34.90;20.00;;;;;;5048258;28;19921;-66
2022/05/08 14:01:22;;;;;;;;;;;34.40;19.00;;;;;;5032761;28;19941;-66
2022/05/08 14:03:47;;;;;;;;;;;33.10;18.50;;;;;;5052142;28;19936;-67
2022/05/08 14:06:13;;;;;;;;;;;33.50;19.50;;;;;;5044559;28;20288;-67
2022/05/08 14:08:39;;;;;;;;;;;33.10;20.60;;;;;;5050271;28;19925;-66
2022/05/08 14:11:05;;;;;;;;;;;33.40;20.80;;;;;;5051321;28;19920;-67
2022/05/08 14:13:30;;;;;;;;;;;33.70;19.20;;;;;;5050496;28;19917;-67
2022/05/08 14:15:55;;;;;;;;;;;33.60;20.20;;;;;;5049256;28;19967;-67
2022/05/08 14:18:21;;;;;;;;;;;33.90;20.10;;;;;;5044949;28;19924;-67
2022/05/08 14:20:47;;;;;;;;;;;33.90;20.00;;;;;;5050348;28;20003;-66
2022/05/08 14:23:12;;;;;;;;;;;33.40;19.60;;;;;;5051202;28;20320;-67
2022/05/08 14:25:38;;;;;;;;;;;33.30;19.90;;;;;;5036695;28;20273;-67
2022/05/08 14:28:03;;;;;;;;;;;33.00;20.20;;;;;;5038797;28;19920;-67
2022/05/08 14:30:29;;;;;;;;;;;33.20;20.20;;;;;;5052647;28;19917;-67
2022/05/08 14:38:43;;;;;;;;;;;31.10;21.00;;;;;;5028146;28;19924;-67
2022/05/08 14:41:08;;;;;;;;;;;28.50;21.70;;;;;;5028699;28;20659;-67
2022/05/08 14:43:34;;;;;;;;;;;26.80;22.90;;;;;;5024997;28;20426;-67
2022/05/08 14:46:00;;;;;;;;;;;25.60;23.90;;;;;;5034651;28;19921;-66
2022/05/08 14:48:27;;;;;;;;;;;24.30;25.10;;;;;;5046196;28;19924;-66
2022/05/08 14:50:53;;;;;;;;;;;23.30;25.80;;;;;;5047037;28;19916;-66
2022/05/08 14:53:18;;;;;;;;;;;22.10;26.80;;;;;;5048784;28;19921;-66
2022/05/08 14:55:45;;;;;;;;;;;21.40;27.80;;;;;;5040039;28;19929;-66
2022/05/08 14:58:12;;;;;;;;;;;20.70;28.30;;;;;;5044910;28;19994;-66